SBGR/GRU METAR and TAF weather

Enter ICAO airport designator
Station Type Date Time Source
SBGR METAR 2021/01/20 23:00 UTC NOAA

SBGR 202300Z 16005KT 9000 OVC009 22/20 Q1018


Station Type Date Time Source
SBGR Decoded METAR 2021/01/20 23:00 UTC NOAA

Guarulhos Civ / Mil , Brazil (SBGR) 23-26S 046-28W
Jan 20, 2021 - 06:00 PM EST / 2021.01.20 2300 UTC
Wind: from the SSE (160 degrees) at 6 MPH (5 KT):0
Visibility: 5 mile(s):0
Sky conditions: overcast
Temperature: 71 F (22 C)
Dew Point: 68 F (20 C)
Relative Humidity: 88%
Pressure (altimeter): 30.06 in. Hg (1018 hPa)
ob: SBGR 202300Z 16005KT 9000 OVC009 22/20 Q1018
cycle: 23

Station Type Date Time Source
SBGR TAF 2021/01/20 18:30 UTC NOAA

TAF TAF SBGR 201600Z 2018/2124 14008KT 9999 BKN025 TN20/2108Z TX28/2118Z
TEMPO 2020/2106 7000 RA BKN013 PROB30 2106/2109 00000KT SCT008
TEMPO 2109/2111 BKN009
BECMG 2112/2114 03005KT
BECMG 2115/2117 30005KT BKN020 FEW035TCU
BECMG 2118/2119 14008KT SHRA
BECMG 2120/2121 NSW SCT011
RMK PHH

Example: see airport list